Terminal Aerodrome Forecast
Issued by NWS

Home | Current Version | Previous Version | Text Only | Print | Product List | Glossary On
Versions: 1 2 3 4 5 6 7 8 9 10 11 12 13 14 15 16 17 18 19 20
924
FTUS45 KREV 212339
TAFMMH
TAF
KMMH 212339Z 2200/2224 20016G26KT P6SM VCSH SCT010 BKN040 OVC050
      TEMPO 2200/2203 24011G16KT 3SM -SHSN SCT010 BKN030
     FM220300 25017G30KT 5SM -SHSN SCT010 BKN022
     FM220600 25014G25KT 6SM -SHSN SCT025 BKN035=

USA.gov is the U.S. government's official web portal to all federal, state and local government web resources and services.